sensor_id;sensor_type;location;lat;lon;timestamp;P1;P2;P0
74419;PMS5003;62855;50.718;-2.460;2023-03-01T00:00:06;2.12;2.09;
74419;PMS5003;62855;50.718;-2.460;2023-03-01T00:03:05;2.13;2.1;
74419;PMS5003;62855;50.718;-2.460;2023-03-01T00:06:05;2.16;2.14;
74419;PMS5003;62855;50.718;-2.460;2023-03-01T00:09:06;2.21;2.15;
74419;PMS5003;62855;50.718;-2.460;2023-03-01T00:12:05;2.33;2.23;
74419;PMS5003;62855;50.718;-2.460;2023-03-01T00:15:06;2.38;2.27;
74419;PMS5003;62855;50.718;-2.460;2023-03-01T00:18:06;2.36;2.25;
74419;PMS5003;62855;50.718;-2.460;2023-03-01T00:21:06;2.41;2.3;
74419;PMS5003;62855;50.718;-2.460;2023-03-01T00:24:06;2.42;2.31;
74419;PMS5003;62855;50.718;-2.460;2023-03-01T00:27:06;2.48;2.38;
74419;PMS5003;62855;50.718;-2.460;2023-03-01T00:30:06;2.53;2.43;
74419;PMS5003;62855;50.718;-2.460;2023-03-01T00:33:05;2.56;2.46;
74419;PMS5003;62855;50.718;-2.460;2023-03-01T00:36:06;2.57;2.48;
74419;PMS5003;62855;50.718;-2.460;2023-03-01T00:39:09;2.56;2.46;
74419;PMS5003;62855;50.718;-2.460;2023-03-01T00:42:06;2.57;2.48;
74419;PMS5003;62855;50.718;-2.460;2023-03-01T00:45:06;2.51;2.44;
74419;PMS5003;62855;50.718;-2.460;2023-03-01T00:48:06;2.37;2.35;
74419;PMS5003;62855;50.718;-2.460;2023-03-01T00:51:06;2.24;2.25;
74419;PMS5003;62855;50.718;-2.460;2023-03-01T00:54:07;2.15;2.17;
74419;PMS5003;62855;50.718;-2.460;2023-03-01T00:57:05;2.09;2.13;
74419;PMS5003;62855;50.718;-2.460;2023-03-01T01:00:06;2.0;2.05;
74419;PMS5003;62855;50.718;-2.460;2023-03-01T01:03:06;1.88;1.92;
74419;PMS5003;62855;50.718;-2.460;2023-03-01T01:06:06;1.74;1.78;
74419;PMS5003;62855;50.718;-2.460;2023-03-01T01:09:06;1.6;1.66;
74419;PMS5003;62855;50.718;-2.460;2023-03-01T01:12:05;1.48;1.58;
74419;PMS5003;62855;50.718;-2.460;2023-03-01T01:15:06;1.39;1.5;
74419;PMS5003;62855;50.718;-2.460;2023-03-01T01:18:05;1.36;1.47;
74419;PMS5003;62855;50.718;-2.460;2023-03-01T01:21:06;1.32;1.42;
74419;PMS5003;62855;50.718;-2.460;2023-03-01T01:24:06;1.3;1.4;
74419;PMS5003;62855;50.718;-2.460;2023-03-01T01:27:05;1.27;1.37;
74419;PMS5003;62855;50.718;-2.460;2023-03-01T01:30:06;1.29;1.39;
74419;PMS5003;62855;50.718;-2.460;2023-03-01T01:33:06;1.3;1.4;
74419;PMS5003;62855;50.718;-2.460;2023-03-01T01:36:06;1.33;1.44;
74419;PMS5003;62855;50.718;-2.460;2023-03-01T01:39:05;1.39;1.5;
74419;PMS5003;62855;50.718;-2.460;2023-03-01T01:42:06;1.47;1.58;
74419;PMS5003;62855;50.718;-2.460;2023-03-01T01:45:24;1.53;1.65;
74419;PMS5003;62855;50.718;-2.460;2023-03-01T01:48:07;1.63;1.76;
74419;PMS5003;62855;50.718;-2.460;2023-03-01T01:51:06;1.77;1.91;
74419;PMS5003;62855;50.718;-2.460;2023-03-01T01:54:08;1.88;2.02;
74419;PMS5003;62855;50.718;-2.460;2023-03-01T01:57:07;1.97;2.12;
74419;PMS5003;62855;50.718;-2.460;2023-03-01T02:00:08;2.06;2.22;
74419;PMS5003;62855;50.718;-2.460;2023-03-01T02:03:08;2.21;2.35;
74419;PMS5003;62855;50.718;-2.460;2023-03-01T02:06:06;2.36;2.49;
74419;PMS5003;62855;50.718;-2.460;2023-03-01T02:09:06;2.47;2.61;
74419;PMS5003;62855;50.718;-2.460;2023-03-01T02:12:05;2.54;2.66;
74419;PMS5003;62855;50.718;-2.460;2023-03-01T02:15:06;2.63;2.7;
74419;PMS5003;62855;50.718;-2.460;2023-03-01T02:18:05;2.72;2.75;
74419;PMS5003;62855;50.718;-2.460;2023-03-01T02:21:10;2.78;2.8;
74419;PMS5003;62855;50.718;-2.460;2023-03-01T02:24:07;2.8;2.82;
74419;PMS5003;62855;50.718;-2.460;2023-03-01T02:27:05;2.83;2.85;
74419;PMS5003;62855;50.718;-2.460;2023-03-01T02:30:06;2.87;2.87;
74419;PMS5003;62855;50.718;-2.460;2023-03-01T02:33:06;2.89;2.87;
74419;PMS5003;62855;50.718;-2.460;2023-03-01T02:36:06;2.89;2.87;
74419;PMS5003;62855;50.718;-2.460;2023-03-01T02:39:07;2.89;2.83;
74419;PMS5003;62855;50.718;-2.460;2023-03-01T02:42:05;2.89;2.78;
74419;PMS5003;62855;50.718;-2.460;2023-03-01T02:45:06;2.92;2.77;
74419;PMS5003;62855;50.718;-2.460;2023-03-01T02:48:05;2.95;2.75;
74419;PMS5003;62855;50.718;-2.460;2023-03-01T02:51:07;2.95;2.7;
74419;PMS5003;62855;50.718;-2.460;2023-03-01T02:54:08;2.95;2.62;
74419;PMS5003;62855;50.718;-2.460;2023-03-01T02:57:06;2.96;2.54;
74419;PMS5003;62855;50.718;-2.460;2023-03-01T03:00:06;2.98;2.49;
74419;PMS5003;62855;50.718;-2.460;2023-03-01T03:03:06;2.95;2.48;
74419;PMS5003;62855;50.718;-2.460;2023-03-01T03:06:05;2.93;2.48;
74419;PMS5003;62855;50.718;-2.460;2023-03-01T03:09:05;2.89;2.4;
74419;PMS5003;62855;50.718;-2.460;2023-03-01T03:12:05;2.84;2.33;
74419;PMS5003;62855;50.718;-2.460;2023-03-01T03:15:07;2.77;2.25;
74419;PMS5003;62855;50.718;-2.460;2023-03-01T03:18:06;2.69;2.17;
74419;PMS5003;62855;50.718;-2.460;2023-03-01T03:21:07;2.63;2.1;
74419;PMS5003;62855;50.718;-2.460;2023-03-01T03:24:06;2.54;2.01;
74419;PMS5003;62855;50.718;-2.460;2023-03-01T03:27:06;2.45;1.91;
74419;PMS5003;62855;50.718;-2.460;2023-03-01T03:30:06;2.37;1.86;
74419;PMS5003;62855;50.718;-2.460;2023-03-01T03:33:05;2.24;1.73;
74419;PMS5003;62855;50.718;-2.460;2023-03-01T03:36:05;2.1;1.58;
74419;PMS5003;62855;50.718;-2.460;2023-03-01T03:39:05;2.0;1.5;
74419;PMS5003;62855;50.718;-2.460;2023-03-01T03:42:05;1.91;1.45;
74419;PMS5003;62855;50.718;-2.460;2023-03-01T03:45:05;1.83;1.42;
74419;PMS5003;62855;50.718;-2.460;2023-03-01T03:48:06;1.79;1.42;
74419;PMS5003;62855;50.718;-2.460;2023-03-01T03:51:05;1.7;1.37;
74419;PMS5003;62855;50.718;-2.460;2023-03-01T03:54:06;1.65;1.4;
74419;PMS5003;62855;50.718;-2.460;2023-03-01T03:57:06;1.56;1.4;
74419;PMS5003;62855;50.718;-2.460;2023-03-01T04:00:08;1.45;1.35;
74419;PMS5003;62855;50.718;-2.460;2023-03-01T04:03:05;1.36;1.27;
74419;PMS5003;62855;50.718;-2.460;2023-03-01T04:06:06;1.27;1.18;
74419;PMS5003;62855;50.718;-2.460;2023-03-01T04:09:06;1.23;1.16;
74419;PMS5003;62855;50.718;-2.460;2023-03-01T04:12:05;1.15;1.13;
74419;PMS5003;62855;50.718;-2.460;2023-03-01T04:15:06;1.09;1.11;
74419;PMS5003;62855;50.718;-2.460;2023-03-01T04:18:06;1.03;1.09;
74419;PMS5003;62855;50.718;-2.460;2023-03-01T04:21:06;1.02;1.09;
74419;PMS5003;62855;50.718;-2.460;2023-03-01T04:24:06;1.06;1.14;
74419;PMS5003;62855;50.718;-2.460;2023-03-01T04:27:05;1.11;1.19;
74419;PMS5003;62855;50.718;-2.460;2023-03-01T04:30:06;1.11;1.19;
74419;PMS5003;62855;50.718;-2.460;2023-03-01T04:33:07;1.18;1.27;
74419;PMS5003;62855;50.718;-2.460;2023-03-01T04:36:06;1.27;1.37;
74419;PMS5003;62855;50.718;-2.460;2023-03-01T04:39:06;1.36;1.47;
74419;PMS5003;62855;50.718;-2.460;2023-03-01T04:42:06;1.46;1.57;
74419;PMS5003;62855;50.718;-2.460;2023-03-01T04:45:06;1.53;1.65;
74419;PMS5003;62855;50.718;-2.460;2023-03-01T04:48:05;1.58;1.7;
74419;PMS5003;62855;50.718;-2.460;2023-03-01T04:51:06;1.64;1.76;
74419;PMS5003;62855;50.718;-2.460;2023-03-01T04:54:05;1.64;1.76;
74419;PMS5003;62855;50.718;-2.460;2023-03-01T04:57:06;1.67;1.79;
74419;PMS5003;62855;50.718;-2.460;2023-03-01T05:00:07;1.71;1.84;
74419;PMS5003;62855;50.718;-2.460;2023-03-01T05:03:06;1.76;1.89;
74419;PMS5003;62855;50.718;-2.460;2023-03-01T05:06:06;1.8;1.94;
74419;PMS5003;62855;50.718;-2.460;2023-03-01T05:09:06;1.85;1.99;
74419;PMS5003;62855;50.718;-2.460;2023-03-01T05:12:06;1.89;2.04;
74419;PMS5003;62855;50.718;-2.460;2023-03-01T05:15:06;1.94;2.09;
74419;PMS5003;62855;50.718;-2.460;2023-03-01T05:18:06;2.01;2.17;
74419;PMS5003;62855;50.718;-2.460;2023-03-01T05:21:06;2.04;2.2;
74419;PMS5003;62855;50.718;-2.460;2023-03-01T05:24:06;2.04;2.2;
74419;PMS5003;62855;50.718;-2.460;2023-03-01T05:27:05;2.04;2.2;
74419;PMS5003;62855;50.718;-2.460;2023-03-01T05:30:06;2.04;2.2;
74419;PMS5003;62855;50.718;-2.460;2023-03-01T05:33:05;2.04;2.2;
74419;PMS5003;62855;50.718;-2.460;2023-03-01T05:36:06;2.04;2.2;
74419;PMS5003;62855;50.718;-2.460;2023-03-01T05:39:06;2.04;2.2;
74419;PMS5003;62855;50.718;-2.460;2023-03-01T05:42:05;2.01;2.17;
74419;PMS5003;62855;50.718;-2.460;2023-03-01T05:45:05;1.97;2.12;
74419;PMS5003;62855;50.718;-2.460;2023-03-01T05:48:06;1.92;2.07;
74419;PMS5003;62855;50.718;-2.460;2023-03-01T05:51:06;1.91;2.06;
74419;PMS5003;62855;50.718;-2.460;2023-03-01T05:54:05;1.94;2.09;
74419;PMS5003;62855;50.718;-2.460;2023-03-01T05:57:05;1.98;2.14;
74419;PMS5003;62855;50.718;-2.460;2023-03-01T06:00:06;2.03;2.19;
74419;PMS5003;62855;50.718;-2.460;2023-03-01T06:03:05;2.07;2.23;
74419;PMS5003;62855;50.718;-2.460;2023-03-01T06:06:06;2.12;2.28;
74419;PMS5003;62855;50.718;-2.460;2023-03-01T06:09:06;2.16;2.33;
74419;PMS5003;62855;50.718;-2.460;2023-03-01T06:12:06;2.21;2.38;
74419;PMS5003;62855;50.718;-2.460;2023-03-01T06:15:06;2.25;2.43;
74419;PMS5003;62855;50.718;-2.460;2023-03-01T06:18:05;2.27;2.44;
74419;PMS5003;62855;50.718;-2.460;2023-03-01T06:21:06;2.3;2.48;
74419;PMS5003;62855;50.718;-2.460;2023-03-01T06:24:06;2.34;2.53;
74419;PMS5003;62855;50.718;-2.460;2023-03-01T06:27:06;2.39;2.57;
74419;PMS5003;62855;50.718;-2.460;2023-03-01T06:30:06;2.43;2.62;
74419;PMS5003;62855;50.718;-2.460;2023-03-01T06:33:06;2.48;2.67;
74419;PMS5003;62855;50.718;-2.460;2023-03-01T06:36:06;2.52;2.72;
74419;PMS5003;62855;50.718;-2.460;2023-03-01T06:39:05;2.54;2.74;
74419;PMS5003;62855;50.718;-2.460;2023-03-01T06:42:07;2.54;2.74;
74419;PMS5003;62855;50.718;-2.460;2023-03-01T06:45:06;2.54;2.74;
74419;PMS5003;62855;50.718;-2.460;2023-03-01T06:48:06;2.51;2.7;
74419;PMS5003;62855;50.718;-2.460;2023-03-01T06:51:05;2.46;2.65;
74419;PMS5003;62855;50.718;-2.460;2023-03-01T06:54:05;2.39;2.57;
74419;PMS5003;62855;50.718;-2.460;2023-03-01T06:57:05;2.3;2.48;
74419;PMS5003;62855;50.718;-2.460;2023-03-01T07:00:06;2.21;2.38;
74419;PMS5003;62855;50.718;-2.460;2023-03-01T07:03:06;2.12;2.28;
74419;PMS5003;62855;50.718;-2.460;2023-03-01T07:06:06;2.0;2.15;
74419;PMS5003;62855;50.718;-2.460;2023-03-01T07:09:06;1.88;2.02;
74419;PMS5003;62855;50.718;-2.460;2023-03-01T07:12:06;1.78;1.92;
74419;PMS5003;62855;50.718;-2.460;2023-03-01T07:15:06;1.72;1.86;
74419;PMS5003;62855;50.718;-2.460;2023-03-01T07:18:05;1.71;1.84;
74419;PMS5003;62855;50.718;-2.460;2023-03-01T07:21:06;1.71;1.84;
74419;PMS5003;62855;50.718;-2.460;2023-03-01T07:24:06;1.71;1.84;
74419;PMS5003;62855;50.718;-2.460;2023-03-01T07:27:05;1.74;1.87;
74419;PMS5003;62855;50.718;-2.460;2023-03-01T07:30:06;1.79;1.92;
74419;PMS5003;62855;50.718;-2.460;2023-03-01T07:33:05;1.83;1.97;
74419;PMS5003;62855;50.718;-2.460;2023-03-01T07:36:06;1.88;2.02;
74419;PMS5003;62855;50.718;-2.460;2023-03-01T07:39:05;1.92;2.07;
74419;PMS5003;62855;50.718;-2.460;2023-03-01T07:42:06;2.0;2.15;
74419;PMS5003;62855;50.718;-2.460;2023-03-01T07:45:06;2.09;2.22;
74419;PMS5003;62855;50.718;-2.460;2023-03-01T07:48:06;2.18;2.3;
74419;PMS5003;62855;50.718;-2.460;2023-03-01T07:51:06;2.27;2.4;
74419;PMS5003;62855;50.718;-2.460;2023-03-01T07:54:06;2.36;2.46;
74419;PMS5003;62855;50.718;-2.460;2023-03-01T07:57:06;2.45;2.51;
74419;PMS5003;62855;50.718;-2.460;2023-03-01T08:00:06;2.54;2.56;
74419;PMS5003;62855;50.718;-2.460;2023-03-01T08:03:06;2.63;2.64;
74419;PMS5003;62855;50.718;-2.460;2023-03-01T08:06:06;2.75;2.74;
74419;PMS5003;62855;50.718;-2.460;2023-03-01T08:09:06;2.87;2.82;
74419;PMS5003;62855;50.718;-2.460;2023-03-01T08:12:06;2.96;2.87;
74419;PMS5003;62855;50.718;-2.460;2023-03-01T08:15:06;2.99;2.88;
74419;PMS5003;62855;50.718;-2.460;2023-03-01T08:18:05;2.98;2.87;
74419;PMS5003;62855;50.718;-2.460;2023-03-01T08:21:06;2.98;2.87;
74419;PMS5003;62855;50.718;-2.460;2023-03-01T08:24:06;2.98;2.87;
74419;PMS5003;62855;50.718;-2.460;2023-03-01T08:27:05;2.95;2.84;
74419;PMS5003;62855;50.718;-2.460;2023-03-01T08:30:06;2.9;2.79;
74419;PMS5003;62855;50.718;-2.460;2023-03-01T08:33:06;2.89;2.74;
74419;PMS5003;62855;50.718;-2.460;2023-03-01T08:36:06;2.86;2.69;
74419;PMS5003;62855;50.718;-2.460;2023-03-01T08:39:05;2.81;2.64;
74419;PMS5003;62855;50.718;-2.460;2023-03-01T08:42:05;2.75;2.54;
74419;PMS5003;62855;50.718;-2.460;2023-03-01T08:45:06;2.66;2.43;
74419;PMS5003;62855;50.718;-2.460;2023-03-01T08:48:06;2.6;2.33;
74419;PMS5003;62855;50.718;-2.460;2023-03-01T08:51:07;2.6;2.28;
74419;PMS5003;62855;50.718;-2.460;2023-03-01T08:54:07;2.6;2.27;
74419;PMS5003;62855;50.718;-2.460;2023-03-01T08:57:06;2.6;2.27;
74419;PMS5003;62855;50.718;-2.460;2023-03-01T09:00:06;2.6;2.27;
74419;PMS5003;62855;50.718;-2.460;2023-03-01T09:03:05;2.57;2.23;
74419;PMS5003;62855;50.718;-2.460;2023-03-01T09:06:06;2.53;2.22;
74419;PMS5003;62855;50.718;-2.460;2023-03-01T09:09:06;2.48;2.22;
74419;PMS5003;62855;50.718;-2.460;2023-03-01T09:12:05;2.44;2.22;
74419;PMS5003;62855;50.718;-2.460;2023-03-01T09:15:06;2.42;2.22;
74419;PMS5003;62855;50.718;-2.460;2023-03-01T09:18:06;2.38;2.17;
74419;PMS5003;62855;50.718;-2.460;2023-03-01T09:21:06;2.31;2.1;
74419;PMS5003;62855;50.718;-2.460;2023-03-01T09:24:06;2.27;2.06;
74419;PMS5003;62855;50.718;-2.460;2023-03-01T09:27:06;2.22;2.01;
74419;PMS5003;62855;50.718;-2.460;2023-03-01T09:30:06;2.18;1.96;
74419;PMS5003;62855;50.718;-2.460;2023-03-01T09:33:06;2.1;1.91;
74419;PMS5003;62855;50.718;-2.460;2023-03-01T09:36:07;2.04;1.86;
74419;PMS5003;62855;50.718;-2.460;2023-03-01T09:39:06;2.0;1.81;
74419;PMS5003;62855;50.718;-2.460;2023-03-01T09:42:05;2.0;1.85;
74419;PMS5003;62855;50.718;-2.460;2023-03-01T09:45:06;2.01;1.91;
74419;PMS5003;62855;50.718;-2.460;2023-03-01T09:48:06;2.04;1.99;
74419;PMS5003;62855;50.718;-2.460;2023-03-01T09:51:06;2.01;2.01;
74419;PMS5003;62855;50.718;-2.460;2023-03-01T09:54:06;2.0;2.04;
74419;PMS5003;62855;50.718;-2.460;2023-03-01T09:57:10;1.95;2.04;
74419;PMS5003;62855;50.718;-2.460;2023-03-01T10:00:19;1.95;2.09;
74419;PMS5003;62855;50.718;-2.460;2023-03-01T10:03:09;1.98;2.14;
74419;PMS5003;62855;50.718;-2.460;2023-03-01T10:06:08;2.03;2.19;
74419;PMS5003;62855;50.718;-2.460;2023-03-01T10:09:07;2.07;2.23;
74419;PMS5003;62855;50.718;-2.460;2023-03-01T10:12:07;2.12;2.28;
74419;PMS5003;62855;50.718;-2.460;2023-03-01T10:15:08;2.16;2.33;
74419;PMS5003;62855;50.718;-2.460;2023-03-01T10:18:06;2.21;2.38;
74419;PMS5003;62855;50.718;-2.460;2023-03-01T10:21:09;2.22;2.4;
74419;PMS5003;62855;50.718;-2.460;2023-03-01T10:24:08;2.22;2.4;
74419;PMS5003;62855;50.718;-2.460;2023-03-01T10:27:06;2.22;2.4;
74419;PMS5003;62855;50.718;-2.460;2023-03-01T10:30:09;2.25;2.43;
74419;PMS5003;62855;50.718;-2.460;2023-03-01T10:33:08;2.27;2.45;
74419;PMS5003;62855;50.718;-2.460;2023-03-01T10:36:05;2.27;2.45;
74419;PMS5003;62855;50.718;-2.460;2023-03-01T10:39:11;2.3;2.48;
74419;PMS5003;62855;50.718;-2.460;2023-03-01T10:42:10;2.31;2.49;
74419;PMS5003;62855;50.718;-2.460;2023-03-01T10:45:19;2.34;2.53;
74419;PMS5003;62855;50.718;-2.460;2023-03-01T10:48:10;2.39;2.54;
74419;PMS5003;62855;50.718;-2.460;2023-03-01T10:51:06;2.44;2.57;
74419;PMS5003;62855;50.718;-2.460;2023-03-01T10:54:05;2.45;2.56;
74419;PMS5003;62855;50.718;-2.460;2023-03-01T10:57:10;2.5;2.56;
74419;PMS5003;62855;50.718;-2.460;2023-03-01T11:00:15;2.5;2.51;
74419;PMS5003;62855;50.718;-2.460;2023-03-01T11:03:10;2.5;2.46;
74419;PMS5003;62855;50.718;-2.460;2023-03-01T11:06:12;2.5;2.41;
74419;PMS5003;62855;50.718;-2.460;2023-03-01T11:09:13;2.5;2.36;
74419;PMS5003;62855;50.718;-2.460;2023-03-01T11:12:12;2.47;2.28;
74419;PMS5003;62855;50.718;-2.460;2023-03-01T11:15:08;2.45;2.22;
74419;PMS5003;62855;50.718;-2.460;2023-03-01T11:18:05;2.45;2.2;
74419;PMS5003;62855;50.718;-2.460;2023-03-01T11:21:05;2.45;2.2;
74419;PMS5003;62855;50.718;-2.460;2023-03-01T11:24:08;2.48;2.23;
74419;PMS5003;62855;50.718;-2.460;2023-03-01T11:27:08;2.53;2.28;
74419;PMS5003;62855;50.718;-2.460;2023-03-01T11:30:07;2.54;2.3;
74419;PMS5003;62855;50.718;-2.460;2023-03-01T11:33:11;2.57;2.33;
74419;PMS5003;62855;50.718;-2.460;2023-03-01T11:36:07;2.62;2.38;
74419;PMS5003;62855;50.718;-2.460;2023-03-01T11:39:11;2.63;2.4;
74419;PMS5003;62855;50.718;-2.460;2023-03-01T11:42:09;2.66;2.43;
74419;PMS5003;62855;50.718;-2.460;2023-03-01T11:45:08;2.68;2.44;
74419;PMS5003;62855;50.718;-2.460;2023-03-01T11:48:09;2.65;2.44;
74419;PMS5003;62855;50.718;-2.460;2023-03-01T11:51:07;2.63;2.45;
74419;PMS5003;62855;50.718;-2.460;2023-03-01T11:54:09;2.63;2.48;
74419;PMS5003;62855;50.718;-2.460;2023-03-01T11:57:08;2.63;2.53;
74419;PMS5003;62855;50.718;-2.460;2023-03-01T12:00:10;2.63;2.57;
74419;PMS5003;62855;50.718;-2.460;2023-03-01T12:03:21;2.63;2.62;
74419;PMS5003;62855;50.718;-2.460;2023-03-01T12:06:11;2.63;2.67;
74419;PMS5003;62855;50.718;-2.460;2023-03-01T12:09:11;2.66;2.75;
74419;PMS5003;62855;50.718;-2.460;2023-03-01T12:12:11;2.74;2.88;
74419;PMS5003;62855;50.718;-2.460;2023-03-01T12:15:11;2.8;3.0;
74419;PMS5003;62855;50.718;-2.460;2023-03-01T12:18:11;2.87;3.09;
74419;PMS5003;62855;50.718;-2.460;2023-03-01T12:21:08;2.96;3.19;
74419;PMS5003;62855;50.718;-2.460;2023-03-01T12:27:17;3.04;3.27;
74419;PMS5003;62855;50.718;-2.460;2023-03-01T12:30:09;3.05;3.29;
74419;PMS5003;62855;50.718;-2.460;2023-03-01T12:33:09;3.07;3.31;
74419;PMS5003;62855;50.718;-2.460;2023-03-01T12:36:10;3.1;3.34;
74419;PMS5003;62855;50.718;-2.460;2023-03-01T12:39:10;3.11;3.35;
74419;PMS5003;62855;50.718;-2.460;2023-03-01T12:42:08;3.08;3.32;
74419;PMS5003;62855;50.718;-2.460;2023-03-01T12:45:26;3.07;3.31;
74419;PMS5003;62855;50.718;-2.460;2023-03-01T12:48:09;3.04;3.27;
74419;PMS5003;62855;50.718;-2.460;2023-03-01T12:51:07;2.99;3.22;
74419;PMS5003;62855;50.718;-2.460;2023-03-01T12:54:07;2.95;3.18;
74419;PMS5003;62855;50.718;-2.460;2023-03-01T12:57:08;2.9;3.13;
74419;PMS5003;62855;50.718;-2.460;2023-03-01T13:00:09;2.86;3.08;
74419;PMS5003;62855;50.718;-2.460;2023-03-01T13:03:16;2.81;3.03;
74419;PMS5003;62855;50.718;-2.460;2023-03-01T13:06:07;2.77;2.98;
74419;PMS5003;62855;50.718;-2.460;2023-03-01T13:09:08;2.69;2.9;
74419;PMS5003;62855;50.718;-2.460;2023-03-01T13:15:13;2.54;2.74;
74419;PMS5003;62855;50.718;-2.460;2023-03-01T13:21:05;2.45;2.64;
74419;PMS5003;62855;50.718;-2.460;2023-03-01T13:27:10;2.39;2.58;
74419;PMS5003;62855;50.718;-2.460;2023-03-01T13:30:12;2.41;2.56;
74419;PMS5003;62855;50.718;-2.460;2023-03-01T13:36:06;2.42;2.48;
74419;PMS5003;62855;50.718;-2.460;2023-03-01T13:39:26;2.42;2.43;
74419;PMS5003;62855;50.718;-2.460;2023-03-01T13:45:14;2.51;2.43;
74419;PMS5003;62855;50.718;-2.460;2023-03-01T13:48:08;2.59;2.46;
74419;PMS5003;62855;50.718;-2.460;2023-03-01T13:51:06;2.68;2.51;
74419;PMS5003;62855;50.718;-2.460;2023-03-01T13:54:09;2.74;2.53;
74419;PMS5003;62855;50.718;-2.460;2023-03-01T13:57:05;2.81;2.56;
74419;PMS5003;62855;50.718;-2.460;2023-03-01T14:00:06;2.9;2.61;
74419;PMS5003;62855;50.718;-2.460;2023-03-01T14:03:09;2.98;2.64;
74419;PMS5003;62855;50.718;-2.460;2023-03-01T14:06:06;3.02;2.64;
74419;PMS5003;62855;50.718;-2.460;2023-03-01T14:09:09;3.07;2.64;
74419;PMS5003;62855;50.718;-2.460;2023-03-01T14:12:09;3.16;2.69;
74419;PMS5003;62855;50.718;-2.460;2023-03-01T14:15:06;3.19;2.67;
74419;PMS5003;62855;50.718;-2.460;2023-03-01T14:18:06;3.19;2.62;
74419;PMS5003;62855;50.718;-2.460;2023-03-01T14:21:07;3.19;2.57;
74419;PMS5003;62855;50.718;-2.460;2023-03-01T14:24:06;3.19;2.53;
74419;PMS5003;62855;50.718;-2.460;2023-03-01T14:27:09;3.16;2.48;
74419;PMS5003;62855;50.718;-2.460;2023-03-01T14:30:10;3.08;2.43;
74419;PMS5003;62855;50.718;-2.460;2023-03-01T14:33:16;2.99;2.38;
74419;PMS5003;62855;50.718;-2.460;2023-03-01T14:36:06;0.91;0.98;
74419;PMS5003;62855;50.718;-2.460;2023-03-01T14:39:15;1.82;1.96;
74419;PMS5003;62855;50.718;-2.460;2023-03-01T14:42:05;1.82;1.96;
74419;PMS5003;62855;50.718;-2.460;2023-03-01T14:45:06;2.72;2.93;
74419;PMS5003;62855;50.718;-2.460;2023-03-01T14:48:06;2.72;2.93;
74419;PMS5003;62855;50.718;-2.460;2023-03-01T14:51:05;3.63;2.93;
74419;PMS5003;62855;50.718;-2.460;2023-03-01T14:54:13;4.54;3.91;
74419;PMS5003;62855;50.718;-2.460;2023-03-01T14:57:05;5.45;3.91;
74419;PMS5003;62855;50.718;-2.460;2023-03-01T15:00:06;5.45;3.91;
74419;PMS5003;62855;50.718;-2.460;2023-03-01T15:03:07;5.45;3.91;
74419;PMS5003;62855;50.718;-2.460;2023-03-01T15:06:06;5.45;3.91;
74419;PMS5003;62855;50.718;-2.460;2023-03-01T15:09:05;4.54;3.91;
74419;PMS5003;62855;50.718;-2.460;2023-03-01T15:15:21;4.54;3.91;
74419;PMS5003;62855;50.718;-2.460;2023-03-01T15:18:11;4.54;3.91;
74419;PMS5003;62855;50.718;-2.460;2023-03-01T15:21:06;4.54;3.91;
74419;PMS5003;62855;50.718;-2.460;2023-03-01T15:24:06;3.63;3.91;
74419;PMS5003;62855;50.718;-2.460;2023-03-01T15:27:12;3.63;2.93;
74419;PMS5003;62855;50.718;-2.460;2023-03-01T15:30:06;3.63;2.93;
74419;PMS5003;62855;50.718;-2.460;2023-03-01T15:33:16;3.63;2.93;
74419;PMS5003;62855;50.718;-2.460;2023-03-01T15:39:22;3.63;3.91;
74419;PMS5003;62855;50.718;-2.460;2023-03-01T15:42:07;2.72;2.93;
74419;PMS5003;62855;50.718;-2.460;2023-03-01T15:45:08;3.63;3.91;
74419;PMS5003;62855;50.718;-2.460;2023-03-01T15:48:13;3.63;3.91;
74419;PMS5003;62855;50.718;-2.460;2023-03-01T15:51:09;3.63;3.91;
74419;PMS5003;62855;50.718;-2.460;2023-03-01T15:54:06;3.63;3.91;
74419;PMS5003;62855;50.718;-2.460;2023-03-01T15:57:07;3.63;3.91;
74419;PMS5003;62855;50.718;-2.460;2023-03-01T16:00:08;3.63;3.91;
74419;PMS5003;62855;50.718;-2.460;2023-03-01T16:03:05;2.72;2.93;
74419;PMS5003;62855;50.718;-2.460;2023-03-01T16:06:06;2.72;2.93;
74419;PMS5003;62855;50.718;-2.460;2023-03-01T16:09:05;4.54;4.89;
74419;PMS5003;62855;50.718;-2.460;2023-03-01T16:12:05;5.45;4.89;
74419;PMS5003;62855;50.718;-2.460;2023-03-01T16:15:08;2.72;2.93;
74419;PMS5003;62855;50.718;-2.460;2023-03-01T16:18:05;3.63;2.93;
74419;PMS5003;62855;50.718;-2.460;2023-03-01T16:21:06;3.63;3.91;
74419;PMS5003;62855;50.718;-2.460;2023-03-01T16:24:06;2.72;2.93;
74419;PMS5003;62855;50.718;-2.460;2023-03-01T16:26:05;4.54;4.89;
74419;PMS5003;62855;50.718;-2.460;2023-03-01T16:27:06;1.82;1.96;
74419;PMS5003;62855;50.718;-2.460;2023-03-01T16:28:06;2.72;2.93;
74419;PMS5003;62855;50.718;-2.460;2023-03-01T16:30:07;2.72;2.93;
74419;PMS5003;62855;50.718;-2.460;2023-03-01T16:32:05;4.54;4.89;
74419;PMS5003;62855;50.718;-2.460;2023-03-01T16:33:05;3.63;3.91;
74419;PMS5003;62855;50.718;-2.460;2023-03-01T16:35:06;0.91;0.98;
74419;PMS5003;62855;50.718;-2.460;2023-03-01T16:36:07;6.35;6.84;
74419;PMS5003;62855;50.718;-2.460;2023-03-01T16:37:05;4.54;4.89;
74419;PMS5003;62855;50.718;-2.460;2023-03-01T16:40:07;0;0;
74419;PMS5003;62855;50.718;-2.460;2023-03-01T16:43:05;0.91;0.98;
74419;PMS5003;62855;50.718;-2.460;2023-03-01T16:46:09;0.91;0.98;
74419;PMS5003;62855;50.718;-2.460;2023-03-01T16:49:06;0.91;0.98;
74419;PMS5003;62855;50.718;-2.460;2023-03-01T16:52:05;0;0;
74419;PMS5003;62855;50.718;-2.460;2023-03-01T16:55:06;0;0;
74419;PMS5003;62855;50.718;-2.460;2023-03-01T16:58:06;0.91;0.98;
74419;PMS5003;62855;50.718;-2.460;2023-03-01T17:01:06;0.91;0.98;
74419;PMS5003;62855;50.718;-2.460;2023-03-01T17:04:06;0.91;0.98;
74419;PMS5003;62855;50.718;-2.460;2023-03-01T17:07:06;0.91;0.98;
74419;PMS5003;62855;50.718;-2.460;2023-03-01T17:10:09;0.91;0.98;
74419;PMS5003;62855;50.718;-2.460;2023-03-01T17:13:06;1.82;1.96;
74419;PMS5003;62855;50.718;-2.460;2023-03-01T17:16:06;1.82;1.96;
74419;PMS5003;62855;50.718;-2.460;2023-03-01T17:19:06;1.82;1.96;
74419;PMS5003;62855;50.718;-2.460;2023-03-01T17:22:06;1.82;1.96;
74419;PMS5003;62855;50.718;-2.460;2023-03-01T17:25:06;1.82;1.96;
74419;PMS5003;62855;50.718;-2.460;2023-03-01T17:28:05;1.82;1.96;
74419;PMS5003;62855;50.718;-2.460;2023-03-01T17:31:06;1.82;1.96;
74419;PMS5003;62855;50.718;-2.460;2023-03-01T17:34:05;2.72;1.96;
74419;PMS5003;62855;50.718;-2.460;2023-03-01T17:37:06;2.72;2.93;
74419;PMS5003;62855;50.718;-2.460;2023-03-01T17:40:06;2.72;2.93;
74419;PMS5003;62855;50.718;-2.460;2023-03-01T17:43:05;2.72;2.93;
74419;PMS5003;62855;50.718;-2.460;2023-03-01T17:46:05;2.72;2.93;
74419;PMS5003;62855;50.718;-2.460;2023-03-01T17:49:05;2.72;2.93;
74419;PMS5003;62855;50.718;-2.460;2023-03-01T17:52:05;2.72;2.93;
74419;PMS5003;62855;50.718;-2.460;2023-03-01T17:55:06;3.63;3.91;
74419;PMS5003;62855;50.718;-2.460;2023-03-01T17:58:06;3.63;3.91;
74419;PMS5003;62855;50.718;-2.460;2023-03-01T18:01:06;3.63;3.91;
74419;PMS5003;62855;50.718;-2.460;2023-03-01T18:04:05;3.63;3.91;
74419;PMS5003;62855;50.718;-2.460;2023-03-01T18:07:05;3.63;3.91;
74419;PMS5003;62855;50.718;-2.460;2023-03-01T18:10:06;3.63;3.91;
74419;PMS5003;62855;50.718;-2.460;2023-03-01T18:13:06;3.63;3.91;
74419;PMS5003;62855;50.718;-2.460;2023-03-01T18:16:06;4.54;4.89;
74419;PMS5003;62855;50.718;-2.460;2023-03-01T18:19:05;4.54;3.91;
74419;PMS5003;62855;50.718;-2.460;2023-03-01T18:22:06;4.54;4.89;
74419;PMS5003;62855;50.718;-2.460;2023-03-01T18:25:06;4.54;4.89;
74419;PMS5003;62855;50.718;-2.460;2023-03-01T18:28:05;4.54;3.91;
74419;PMS5003;62855;50.718;-2.460;2023-03-01T18:31:06;4.54;3.91;
74419;PMS5003;62855;50.718;-2.460;2023-03-01T18:34:05;4.54;3.91;